Terminal Aerodrome Forecast
Issued by NWS Sterling, VA

Current Version | Previous Version | Text Only | Print | Product List | Glossary On
Versions: 1 2 3 4 5 6 7 8 9 10 11 12 13 14 15 16 17 18 19 20 21 22 23
000
FTUS41 KLWX 270300 AAA
TAFMRB
TAF AMD
KMRB 270340Z 2704/2724 01009KT 4SM -SN FEW008 OVC025
     FM270900 33008KT 4SM -SN OVC015
     FM271400 32010KT P6SM OVC015
     FM271900 32012G20KT P6SM BKN025
     FM272200 31014G23KT P6SM BKN045=

USA.gov is the U.S. government's official web portal to all federal, state and local government web resources and services.